Terminal Aerodrome Forecast
Issued by NWS Billings, MT

Home | Current Version | Previous Version | Graphics & Text | Print | Product List | Glossary On
Versions: 1 2 3 4 5 6 7 8 9 10 11 12 13 14 15 16 17 18 19 20 21 22 23 24 25 26 27 28 29 30 31 32
682
FTUS45 KBYZ 052335
TAFMLS
TAF
KMLS 052335Z 0600/0624 32017G23KT P6SM VCSH FEW035 SCT045 OVC110
      TEMPO 0600/0604 BKN030
     FM060600 32015KT P6SM SCT017 BKN040
     FM061600 32012G21KT P6SM SCT035 BKN050=

USA.gov is the U.S. government's official web portal to all federal, state and local government web resources and services.